Time;durP1;ratioP1;P1;durP2;ratioP2;P2;SDS_P1;SDS_P2;PMS_P1;PMS_P2;Temp;Humidity;BMP_temperature;BMP_pressure;BME280_temperature;BME280_humidity;BME280_pressure;Samples;Min_cycle;Max_cycle;Signal;HPM_P1;HPM_P2
2022/02/01 00:00:42;;;;;;;;;;;-1.90;99.90;;;;;;4927861;28;20052;-69
2022/02/01 00:03:11;;;;;;;;;;;-1.90;99.90;;;;;;4930931;28;20421;-71
2022/02/01 00:05:55;;;;;;;;;;;-1.90;99.90;;;;;;4931431;28;19936;-69
2022/02/01 00:11:35;;;;;;;;;;;-2.10;99.90;;;;;;4926710;28;20008;-71
2022/02/01 00:14:12;;;;;;;;;;;-2.00;99.90;;;;;;4933023;28;20280;-69
2022/02/01 00:36:01;;;;;;;;;;;-2.20;99.90;;;;;;4931282;28;19930;-65
2022/02/01 00:41:31;;;;;;;;;;;-2.20;99.90;;;;;;4917486;28;20583;-66
2022/02/01 00:43:58;;;;;;;;;;;-2.20;99.90;;;;;;4933048;28;20579;-64
2022/02/01 00:46:25;;;;;;;;;;;-2.20;99.90;;;;;;4931222;28;19934;-64
2022/02/01 00:48:52;;;;;;;;;;;-2.20;99.90;;;;;;4936585;28;19930;-68
2022/02/01 00:51:20;;;;;;;;;;;-2.10;99.90;;;;;;4930644;28;19927;-64
2022/02/01 00:53:47;;;;;;;;;;;-2.20;99.90;;;;;;4933722;28;20226;-67
2022/02/01 00:56:14;;;;;;;;;;;-2.20;99.90;;;;;;4933755;28;19930;-63
2022/02/01 00:58:42;;;;;;;;;;;-2.20;99.90;;;;;;4930410;28;19930;-65
2022/02/01 01:01:09;;;;;;;;;;;-2.20;99.90;;;;;;4931937;28;19931;-64
2022/02/01 01:03:36;;;;;;;;;;;-2.20;99.90;;;;;;4932689;28;19930;-70
2022/02/01 01:06:03;;;;;;;;;;;-2.30;99.90;;;;;;4930006;28;19929;-66
2022/02/01 01:08:30;;;;;;;;;;;-2.30;99.90;;;;;;4933898;28;19930;-65
2022/02/01 01:10:57;;;;;;;;;;;-2.30;99.90;;;;;;4932232;28;19930;-66
2022/02/01 01:54:19;;;;;;;;;;;-2.50;99.90;;;;;;4901608;28;19930;-68
2022/02/01 01:56:46;;;;;;;;;;;-2.60;99.90;;;;;;4903614;28;21431;-64
2022/02/01 01:59:13;;;;;;;;;;;-2.60;99.90;;;;;;4923019;28;19988;-67
2022/02/01 02:01:41;;;;;;;;;;;-2.50;99.90;;;;;;4932794;28;20540;-66
2022/02/01 02:04:08;;;;;;;;;;;-2.60;99.90;;;;;;4931011;28;19930;-68
2022/02/01 02:06:37;;;;;;;;;;;-2.60;99.90;;;;;;4935754;28;20028;-66
2022/02/01 02:09:06;;;;;;;;;;;-2.60;99.90;;;;;;4930958;28;19937;-69
2022/02/01 02:14:24;;;;;;;;;;;-2.60;99.90;;;;;;4935856;28;20700;-64
2022/02/01 02:16:52;;;;;;;;;;;-2.60;99.90;;;;;;4935170;28;20057;-66
2022/02/01 02:19:19;;;;;;;;;;;-2.60;99.90;;;;;;4933004;28;19930;-66
2022/02/01 02:21:51;;;;;;;;;;;-2.60;99.90;;;;;;4932453;28;20350;-64
2022/02/01 02:24:18;;;;;;;;;;;-2.60;99.90;;;;;;4936358;28;19930;-64
2022/02/01 02:26:46;;;;;;;;;;;-2.60;99.90;;;;;;4932794;28;21196;-65
2022/02/01 02:29:12;;;;;;;;;;;-2.60;99.90;;;;;;4936403;28;19926;-66
2022/02/01 02:31:40;;;;;;;;;;;-2.60;99.90;;;;;;4930482;28;20012;-69
2022/02/01 02:34:10;;;;;;;;;;;-2.60;99.90;;;;;;4937258;28;20049;-63
2022/02/01 02:36:43;;;;;;;;;;;-2.60;99.90;;;;;;4934542;28;20399;-69
2022/02/01 02:47:05;;;;;;;;;;;-2.50;99.90;;;;;;4935907;28;20001;-68
2022/02/01 02:49:32;;;;;;;;;;;-2.50;99.90;;;;;;4933635;28;19930;-70
2022/02/01 02:51:59;;;;;;;;;;;-2.50;99.90;;;;;;4935496;28;19930;-65
2022/02/01 02:54:26;;;;;;;;;;;-2.50;99.90;;;;;;4934646;28;20312;-65
2022/02/01 02:56:55;;;;;;;;;;;-2.50;99.90;;;;;;4935261;28;20017;-67
2022/02/01 02:59:22;;;;;;;;;;;-2.60;99.90;;;;;;4933691;28;21256;-67
2022/02/01 03:01:50;;;;;;;;;;;-2.60;99.90;;;;;;4933726;28;20046;-67
2022/02/01 03:04:17;;;;;;;;;;;-2.60;99.90;;;;;;4932806;28;19930;-65
2022/02/01 03:06:44;;;;;;;;;;;-2.50;99.90;;;;;;4931759;28;20875;-67
2022/02/01 03:09:12;;;;;;;;;;;-2.50;99.90;;;;;;4934937;28;20052;-67
2022/02/01 03:11:39;;;;;;;;;;;-2.50;99.90;;;;;;4931090;28;19934;-68
2022/02/01 03:14:19;;;;;;;;;;;-2.50;99.90;;;;;;4932954;28;19973;-71
2022/02/01 03:21:59;;;;;;;;;;;-2.50;99.90;;;;;;4931402;28;19930;-65
2022/02/01 03:24:25;;;;;;;;;;;-2.50;99.90;;;;;;4931128;28;19931;-66
2022/02/01 03:26:52;;;;;;;;;;;-2.50;99.90;;;;;;4900412;28;19934;-69
2022/02/01 03:29:19;;;;;;;;;;;-2.50;99.90;;;;;;4902881;28;20455;-66
2022/02/01 03:31:48;;;;;;;;;;;-2.40;99.90;;;;;;4900837;28;19992;-69
2022/02/01 03:34:15;;;;;;;;;;;-2.40;99.90;;;;;;4900818;28;19995;-68
2022/02/01 03:36:42;;;;;;;;;;;-2.40;99.90;;;;;;4899271;28;19931;-67
2022/02/01 03:39:16;;;;;;;;;;;-2.40;99.90;;;;;;3656017;28;10023565;-68
2022/02/01 03:41:43;;;;;;;;;;;-2.40;99.90;;;;;;2366499;28;10002093;-66
2022/02/01 03:44:12;;;;;;;;;;;-2.40;99.90;;;;;;4917648;28;19937;-66
2022/02/01 03:46:48;;;;;;;;;;;-2.30;99.90;;;;;;4901493;28;19930;-65
2022/02/01 03:49:15;;;;;;;;;;;-2.30;99.90;;;;;;4901930;28;20096;-67
2022/02/01 03:51:41;;;;;;;;;;;-2.30;99.90;;;;;;4901421;28;20189;-65
2022/02/01 03:54:08;;;;;;;;;;;-2.30;99.90;;;;;;4898699;28;20402;-67
2022/02/01 03:56:35;;;;;;;;;;;-2.30;99.90;;;;;;4915164;28;19941;-70
2022/02/01 03:59:02;;;;;;;;;;;-2.20;99.90;;;;;;4932196;28;19942;-69
2022/02/01 04:01:29;;;;;;;;;;;-2.20;99.90;;;;;;4934541;28;19936;-64
2022/02/01 04:03:57;;;;;;;;;;;-2.20;99.90;;;;;;4933038;28;19930;-68
2022/02/01 04:06:23;;;;;;;;;;;-2.20;99.90;;;;;;4934061;28;19937;-66
2022/02/01 04:08:50;;;;;;;;;;;-2.20;99.90;;;;;;4933953;28;20025;-65
2022/02/01 04:11:18;;;;;;;;;;;-2.20;99.90;;;;;;4932747;28;19930;-66
2022/02/01 04:13:44;;;;;;;;;;;-2.10;99.90;;;;;;4929925;28;19931;-71
2022/02/01 04:16:11;;;;;;;;;;;-2.20;99.90;;;;;;4931505;28;20348;-65
2022/02/01 04:18:38;;;;;;;;;;;-2.10;99.90;;;;;;4930973;28;20426;-63
2022/02/01 04:21:05;;;;;;;;;;;-2.10;99.90;;;;;;4934015;28;19930;-69
2022/02/01 04:23:32;;;;;;;;;;;-2.10;99.90;;;;;;4951557;28;20530;-71
2022/02/01 04:25:59;;;;;;;;;;;-2.10;99.90;;;;;;4934644;28;19941;-70
2022/02/01 04:28:26;;;;;;;;;;;-2.10;99.90;;;;;;4933455;28;20845;-66
2022/02/01 04:30:52;;;;;;;;;;;-2.10;99.90;;;;;;4935434;28;20065;-64
2022/02/01 04:33:19;;;;;;;;;;;-2.10;99.90;;;;;;4935127;28;20660;-67
2022/02/01 04:35:46;;;;;;;;;;;-2.10;99.90;;;;;;4936245;28;20029;-64
2022/02/01 04:38:13;;;;;;;;;;;-2.10;99.90;;;;;;4935054;28;19930;-69
2022/02/01 04:40:40;;;;;;;;;;;-2.10;99.90;;;;;;4938420;28;20534;-67
2022/02/01 04:43:07;;;;;;;;;;;-2.10;99.90;;;;;;4937082;28;20158;-66
2022/02/01 04:45:34;;;;;;;;;;;-2.10;99.90;;;;;;4935651;28;19934;-68
2022/02/01 04:48:02;;;;;;;;;;;-2.10;99.90;;;;;;4939065;28;19930;-66
2022/02/01 04:50:30;;;;;;;;;;;-2.10;99.90;;;;;;4939014;28;19966;-66
2022/02/01 04:52:57;;;;;;;;;;;-2.10;99.90;;;;;;4937224;28;20017;-67
2022/02/01 04:55:28;;;;;;;;;;;-2.10;99.90;;;;;;4937701;28;20574;-67
2022/02/01 04:57:55;;;;;;;;;;;-2.00;99.90;;;;;;4938243;28;20020;-68
2022/02/01 05:00:27;;;;;;;;;;;-2.00;99.90;;;;;;4938466;28;19970;-65
2022/02/01 05:02:58;;;;;;;;;;;-2.00;99.90;;;;;;4936705;28;20025;-67
2022/02/01 05:05:29;;;;;;;;;;;-2.00;99.90;;;;;;4939714;28;20119;-71
2022/02/01 05:07:58;;;;;;;;;;;-2.00;99.90;;;;;;4937268;28;20180;-65
2022/02/01 05:10:26;;;;;;;;;;;-2.00;99.90;;;;;;4938715;28;19930;-69
2022/02/01 05:12:52;;;;;;;;;;;-2.00;99.90;;;;;;4936375;28;20029;-65
2022/02/01 05:15:19;;;;;;;;;;;-2.00;99.90;;;;;;4939053;28;19989;-66
2022/02/01 05:17:53;;;;;;;;;;;-2.00;99.90;;;;;;4939395;28;20464;-62
2022/02/01 05:20:42;;;;;;;;;;;-2.00;99.90;;;;;;4936465;28;20563;-68
2022/02/01 05:23:08;;;;;;;;;;;-2.00;99.90;;;;;;4938429;28;20276;-69
2022/02/01 05:25:35;;;;;;;;;;;-2.00;99.90;;;;;;4906773;28;20029;-68
2022/02/01 05:28:02;;;;;;;;;;;-2.10;99.90;;;;;;4908845;28;19949;-66
2022/02/01 05:30:29;;;;;;;;;;;-2.00;99.90;;;;;;4908788;28;19931;-64
2022/02/01 05:32:56;;;;;;;;;;;-2.00;99.90;;;;;;4904699;28;19934;-69
2022/02/01 05:35:23;;;;;;;;;;;-2.10;99.90;;;;;;4904728;28;20030;-68
2022/02/01 05:37:50;;;;;;;;;;;-2.00;99.90;;;;;;4844189;28;22140;-64
2022/02/01 05:40:38;;;;;;;;;;;-2.10;99.90;;;;;;2165914;28;10023073;-67
2022/02/01 05:43:11;;;;;;;;;;;-2.10;99.90;;;;;;3550441;28;10001030;-66
2022/02/01 05:45:41;;;;;;;;;;;-2.00;99.90;;;;;;4906394;28;19938;-68
2022/02/01 05:48:11;;;;;;;;;;;-2.10;99.90;;;;;;4906274;28;19930;-69
2022/02/01 05:50:40;;;;;;;;;;;-2.10;99.90;;;;;;4907607;28;20316;-68
2022/02/01 05:53:07;;;;;;;;;;;-2.00;99.90;;;;;;4911104;28;20614;-65
2022/02/01 05:55:35;;;;;;;;;;;-2.00;99.90;;;;;;4936888;28;19934;-69
2022/02/01 05:58:02;;;;;;;;;;;-2.00;99.90;;;;;;4937547;28;19941;-66
2022/02/01 06:00:29;;;;;;;;;;;-2.00;99.90;;;;;;4937311;28;19929;-67
2022/02/01 06:02:56;;;;;;;;;;;-2.10;99.90;;;;;;4936436;28;20611;-65
2022/02/01 06:05:23;;;;;;;;;;;-2.10;99.90;;;;;;4935932;28;19926;-64
2022/02/01 06:07:50;;;;;;;;;;;-2.10;99.90;;;;;;4935425;28;20001;-68
2022/02/01 06:10:17;;;;;;;;;;;-2.10;99.90;;;;;;4934532;28;20339;-67
2022/02/01 06:12:45;;;;;;;;;;;-2.20;99.90;;;;;;4937419;28;20029;-66
2022/02/01 06:15:12;;;;;;;;;;;-2.20;99.90;;;;;;4936191;28;20065;-67
2022/02/01 06:17:39;;;;;;;;;;;-2.20;99.90;;;;;;4936861;28;19927;-66
2022/02/01 06:20:08;;;;;;;;;;;-2.20;99.90;;;;;;4937480;28;19926;-69
2022/02/01 06:22:35;;;;;;;;;;;-2.20;99.90;;;;;;4937896;28;20017;-65
2022/02/01 06:25:03;;;;;;;;;;;-2.20;99.90;;;;;;4936891;28;19982;-68
2022/02/01 06:27:30;;;;;;;;;;;-2.20;99.90;;;;;;4933941;28;19962;-67
2022/02/01 06:29:56;;;;;;;;;;;-2.20;99.90;;;;;;4938643;28;20064;-66
2022/02/01 06:32:25;;;;;;;;;;;-2.20;99.90;;;;;;4934439;28;20369;-65
2022/02/01 06:34:52;;;;;;;;;;;-2.10;99.90;;;;;;4936263;28;20421;-65
2022/02/01 06:37:19;;;;;;;;;;;-2.10;99.90;;;;;;4957418;28;20967;-69
2022/02/01 06:39:45;;;;;;;;;;;-2.20;99.90;;;;;;4937708;28;19927;-69
2022/02/01 06:42:12;;;;;;;;;;;-2.10;99.90;;;;;;4936025;28;20030;-69
2022/02/01 06:44:39;;;;;;;;;;;-2.10;99.90;;;;;;4936046;28;19965;-67
2022/02/01 06:47:06;;;;;;;;;;;-2.10;99.90;;;;;;4933939;28;19927;-71
2022/02/01 06:49:33;;;;;;;;;;;-2.10;99.90;;;;;;4933844;28;19926;-64
2022/02/01 06:52:01;;;;;;;;;;;-2.10;99.90;;;;;;4948267;28;19978;-64
2022/02/01 06:54:28;;;;;;;;;;;-2.10;99.90;;;;;;4962297;28;20375;-66
2022/02/01 06:56:55;;;;;;;;;;;-2.10;99.90;;;;;;4934780;28;20009;-67
2022/02/01 06:59:25;;;;;;;;;;;-2.10;99.90;;;;;;4932979;28;20092;-71
2022/02/01 07:01:52;;;;;;;;;;;-2.10;99.90;;;;;;4935140;28;19953;-64
2022/02/01 07:04:19;;;;;;;;;;;-2.00;99.90;;;;;;4936648;28;20063;-64
2022/02/01 07:06:46;;;;;;;;;;;-2.00;99.90;;;;;;4935726;28;21302;-66
2022/02/01 07:09:14;;;;;;;;;;;-2.00;99.90;;;;;;4935404;28;19937;-64
2022/02/01 07:11:41;;;;;;;;;;;-2.00;99.90;;;;;;4930770;28;19930;-68
2022/02/01 07:14:08;;;;;;;;;;;-2.10;99.90;;;;;;4933736;28;20343;-69
2022/02/01 07:16:36;;;;;;;;;;;-2.00;99.90;;;;;;4936494;28;20109;-70
2022/02/01 07:19:03;;;;;;;;;;;-2.00;99.90;;;;;;4933691;28;19939;-65
2022/02/01 07:21:30;;;;;;;;;;;-2.00;99.90;;;;;;4935640;28;19969;-65
2022/02/01 07:23:57;;;;;;;;;;;-2.00;99.90;;;;;;4908940;28;20140;-69
2022/02/01 07:26:24;;;;;;;;;;;-2.00;99.90;;;;;;4904152;28;19934;-68
2022/02/01 07:28:50;;;;;;;;;;;-2.00;99.90;;;;;;4903371;28;19970;-65
2022/02/01 07:31:17;;;;;;;;;;;-2.00;99.90;;;;;;4905450;28;20226;-63
2022/02/01 07:33:44;;;;;;;;;;;-2.00;99.90;;;;;;4902658;28;19998;-69
2022/02/01 07:36:16;;;;;;;;;;;-1.90;99.90;;;;;;4903416;28;20025;-66
2022/02/01 07:38:49;;;;;;;;;;;-1.90;99.90;;;;;;4638775;28;9999959;-64
2022/02/01 07:41:16;;;;;;;;;;;-1.90;99.90;;;;;;1351174;28;10001996;-70
2022/02/01 07:43:43;;;;;;;;;;;-1.90;99.90;;;;;;4765412;28;21237;-68
2022/02/01 07:46:14;;;;;;;;;;;-1.90;99.90;;;;;;334773;28;10021936;-66
2022/02/01 07:48:41;;;;;;;;;;;-1.80;99.90;;;;;;4902505;28;19931;-69
2022/02/01 07:51:11;;;;;;;;;;;-1.80;99.90;;;;;;4902321;28;20648;-63
2022/02/01 07:53:38;;;;;;;;;;;-1.80;99.90;;;;;;4904556;28;20042;-66
2022/02/01 07:56:05;;;;;;;;;;;-1.70;99.90;;;;;;4926055;28;19960;-71
2022/02/01 07:58:32;;;;;;;;;;;-1.70;99.90;;;;;;4934350;28;20041;-67
2022/02/01 08:00:58;;;;;;;;;;;-1.70;99.90;;;;;;4931952;28;20048;-69
2022/02/01 08:03:26;;;;;;;;;;;-1.70;99.90;;;;;;4934294;28;20335;-68
2022/02/01 08:05:53;;;;;;;;;;;-1.60;99.90;;;;;;4932789;28;19927;-66
2022/02/01 08:08:19;;;;;;;;;;;-1.60;99.90;;;;;;4933654;28;19930;-67
2022/02/01 08:10:50;;;;;;;;;;;-1.60;99.90;;;;;;4934798;28;20241;-68
2022/02/01 08:19:07;;;;;;;;;;;-1.60;99.90;;;;;;4935890;28;19952;-66
2022/02/01 08:21:52;;;;;;;;;;;-1.60;99.90;;;;;;4933695;28;19926;-65
2022/02/01 08:24:19;;;;;;;;;;;-1.60;99.90;;;;;;4931433;28;20273;-64
2022/02/01 08:26:47;;;;;;;;;;;-1.60;99.90;;;;;;4936160;28;19937;-66
2022/02/01 08:29:15;;;;;;;;;;;-1.60;99.90;;;;;;4933179;28;19951;-67
2022/02/01 08:31:46;;;;;;;;;;;-1.60;99.90;;;;;;4934277;28;19966;-66
2022/02/01 08:34:14;;;;;;;;;;;-1.60;99.90;;;;;;4945445;28;19937;-66
2022/02/01 08:36:41;;;;;;;;;;;-1.50;99.90;;;;;;4932132;28;19937;-67
2022/02/01 08:39:08;;;;;;;;;;;-1.50;99.90;;;;;;4934707;28;19930;-69
2022/02/01 08:41:36;;;;;;;;;;;-1.50;99.90;;;;;;4934301;28;21653;-68
2022/02/01 08:44:03;;;;;;;;;;;-1.50;99.90;;;;;;4935953;28;19980;-66
2022/02/01 08:46:30;;;;;;;;;;;-1.50;99.90;;;;;;4930893;28;20382;-64
2022/02/01 08:48:57;;;;;;;;;;;-1.50;99.90;;;;;;4934989;28;19934;-68
2022/02/01 08:51:27;;;;;;;;;;;-1.60;99.90;;;;;;4929822;28;19930;-68
2022/02/01 08:53:57;;;;;;;;;;;-1.60;99.90;;;;;;4933444;28;20040;-64
2022/02/01 08:59:27;;;;;;;;;;;-1.50;99.90;;;;;;4932799;28;19941;-68
2022/02/01 09:01:54;;;;;;;;;;;-1.60;99.90;;;;;;4933383;28;19937;-69
2022/02/01 09:04:22;;;;;;;;;;;-1.60;99.90;;;;;;4932473;28;19938;-63
2022/02/01 09:06:49;;;;;;;;;;;-1.60;99.90;;;;;;4935066;28;19930;-66
2022/02/01 09:09:15;;;;;;;;;;;-1.60;99.90;;;;;;4935049;28;20013;-67
2022/02/01 09:11:42;;;;;;;;;;;-1.60;99.90;;;;;;4937911;28;19941;-66
2022/02/01 09:14:10;;;;;;;;;;;-1.70;99.90;;;;;;4935826;28;20452;-66
2022/02/01 09:16:37;;;;;;;;;;;-1.70;99.90;;;;;;4936599;28;19985;-65
2022/02/01 09:19:04;;;;;;;;;;;-1.60;99.90;;;;;;4935888;28;20120;-67
2022/02/01 09:21:31;;;;;;;;;;;-1.60;99.90;;;;;;4936876;28;21385;-65
2022/02/01 09:23:57;;;;;;;;;;;-1.60;99.90;;;;;;4910505;28;19934;-66
2022/02/01 09:26:24;;;;;;;;;;;-1.50;99.90;;;;;;4905670;28;19927;-68
2022/02/01 09:29:11;;;;;;;;;;;-1.50;99.90;;;;;;4905357;28;20373;-65
2022/02/01 09:31:38;;;;;;;;;;;-1.40;99.90;;;;;;4905106;28;20070;-66
2022/02/01 09:34:06;;;;;;;;;;;-1.40;99.90;;;;;;4905970;28;20744;-68
2022/02/01 09:36:33;;;;;;;;;;;-1.40;99.90;;;;;;4907034;28;19937;-68
2022/02/01 09:39:00;;;;;;;;;;;-1.40;99.90;;;;;;4905509;28;19961;-69
2022/02/01 09:41:28;;;;;;;;;;;-1.50;99.90;;;;;;4908141;28;19926;-72
2022/02/01 09:44:14;;;;;;;;;;;-1.50;99.90;;;;;;4056976;28;10000777;-66
2022/02/01 09:46:43;;;;;;;;;;;-1.40;99.90;;;;;;2358741;28;10002094;-68
2022/02/01 09:49:10;;;;;;;;;;;-1.40;99.90;;;;;;4910319;28;20056;-65
2022/02/01 09:51:37;;;;;;;;;;;-1.50;99.90;;;;;;4906586;28;19930;-66
2022/02/01 09:54:20;;;;;;;;;;;-1.50;99.90;;;;;;4928198;28;20041;-66
2022/02/01 09:56:50;;;;;;;;;;;-1.40;99.90;;;;;;4933762;28;19931;-69
2022/02/01 09:59:19;;;;;;;;;;;-1.40;99.90;;;;;;4936322;28;20310;-65
2022/02/01 10:01:53;;;;;;;;;;;-1.40;99.90;;;;;;4931371;28;19950;-70
2022/02/01 10:04:27;;;;;;;;;;;-1.40;99.90;;;;;;4935481;28;19941;-66
2022/02/01 10:07:04;;;;;;;;;;;-1.40;99.90;;;;;;4931649;28;20033;-67
2022/02/01 10:09:33;;;;;;;;;;;-1.40;99.90;;;;;;4936920;28;20321;-69
2022/02/01 10:12:00;;;;;;;;;;;-1.30;99.90;;;;;;4934654;28;20048;-65
2022/02/01 10:14:36;;;;;;;;;;;-1.20;99.90;;;;;;4937198;28;20274;-64
2022/02/01 10:17:07;;;;;;;;;;;-1.20;99.90;;;;;;4935341;28;19930;-63
2022/02/01 10:19:34;;;;;;;;;;;-1.20;99.90;;;;;;4931107;28;19937;-66
2022/02/01 10:22:02;;;;;;;;;;;-1.20;99.90;;;;;;4935654;28;20017;-64
2022/02/01 10:24:30;;;;;;;;;;;-1.10;99.90;;;;;;4932732;28;20166;-66
2022/02/01 10:27:06;;;;;;;;;;;-1.10;99.90;;;;;;4935989;28;20064;-69
2022/02/01 10:29:34;;;;;;;;;;;-1.10;99.90;;;;;;4931772;28;19930;-69
2022/02/01 10:32:11;;;;;;;;;;;-1.10;99.90;;;;;;4933916;28;20300;-66
2022/02/01 10:34:42;;;;;;;;;;;-1.20;99.90;;;;;;4932885;28;19962;-65
2022/02/01 10:37:29;;;;;;;;;;;-1.20;99.90;;;;;;4930155;28;20069;-66
2022/02/01 10:39:57;;;;;;;;;;;-1.10;99.90;;;;;;4936200;28;19930;-66
2022/02/01 10:42:24;;;;;;;;;;;-1.10;99.90;;;;;;4934566;28;20521;-69
2022/02/01 10:44:55;;;;;;;;;;;-1.10;99.90;;;;;;4933594;28;20100;-66
2022/02/01 10:47:35;;;;;;;;;;;-1.00;99.90;;;;;;4929474;28;19949;-68
2022/02/01 10:50:11;;;;;;;;;;;-1.00;99.90;;;;;;4934456;28;20049;-66
2022/02/01 10:52:40;;;;;;;;;;;-1.00;99.90;;;;;;4932336;28;19930;-66
2022/02/01 10:55:08;;;;;;;;;;;-1.00;99.90;;;;;;4935852;28;19941;-65
2022/02/01 10:57:35;;;;;;;;;;;-1.00;99.90;;;;;;4929723;28;22297;-65
2022/02/01 11:00:04;;;;;;;;;;;-0.90;99.90;;;;;;4937637;28;20343;-68
2022/02/01 11:02:31;;;;;;;;;;;-0.90;99.90;;;;;;4933966;28;21340;-63
2022/02/01 11:04:58;;;;;;;;;;;-0.90;99.90;;;;;;4934700;28;19926;-65
2022/02/01 11:07:25;;;;;;;;;;;-0.90;99.90;;;;;;4929641;28;20525;-65
2022/02/01 11:09:52;;;;;;;;;;;-0.80;99.90;;;;;;4936019;28;20013;-66
2022/02/01 11:12:19;;;;;;;;;;;-0.80;99.90;;;;;;4931662;28;19961;-67
2022/02/01 11:14:49;;;;;;;;;;;-0.80;99.90;;;;;;4932613;28;20029;-68
2022/02/01 11:17:17;;;;;;;;;;;-0.70;99.90;;;;;;4933074;28;19938;-62
2022/02/01 11:19:46;;;;;;;;;;;-0.80;99.90;;;;;;4931072;28;20388;-63
2022/02/01 11:22:31;;;;;;;;;;;-0.80;99.90;;;;;;4959079;28;20036;-68
2022/02/01 11:24:59;;;;;;;;;;;-0.80;99.90;;;;;;4913589;28;20040;-68
2022/02/01 11:27:37;;;;;;;;;;;-0.80;99.90;;;;;;4902309;28;20226;-72
2022/02/01 11:30:14;;;;;;;;;;;-0.80;99.90;;;;;;4898063;28;20182;-65
2022/02/01 11:32:48;;;;;;;;;;;-0.70;99.90;;;;;;4899754;28;20049;-68
2022/02/01 11:35:21;;;;;;;;;;;-0.70;99.90;;;;;;4896911;28;19930;-66
2022/02/01 11:38:23;;;;;;;;;;;-0.70;99.90;;;;;;4909857;28;20385;-66
2022/02/01 11:40:58;;;;;;;;;;;-0.60;99.90;;;;;;4898355;28;20025;-72
2022/02/01 11:43:46;;;;;;;;;;;-0.70;99.90;;;;;;4676118;28;10000554;-65
2022/02/01 11:46:18;;;;;;;;;;;-0.60;99.90;;;;;;671124;28;10002004;-70
2022/02/01 11:48:50;;;;;;;;;;;-0.60;99.90;;;;;;4899941;28;19930;-66
2022/02/01 11:51:22;;;;;;;;;;;-0.60;99.90;;;;;;4904407;28;19926;-65
2022/02/01 11:53:55;;;;;;;;;;;-0.60;99.90;;;;;;4902480;28;19937;-64
2022/02/01 11:56:29;;;;;;;;;;;-0.60;99.90;;;;;;4930994;28;19933;-67
2022/02/01 11:58:59;;;;;;;;;;;-0.60;99.90;;;;;;4931556;28;19949;-67
2022/02/01 12:01:31;;;;;;;;;;;-0.60;99.90;;;;;;4931813;28;19933;-68
2022/02/01 12:04:00;;;;;;;;;;;-0.60;99.90;;;;;;4929171;28;20584;-68
2022/02/01 12:06:36;;;;;;;;;;;-0.70;99.90;;;;;;4932770;28;19945;-70
2022/02/01 12:09:09;;;;;;;;;;;-0.70;99.90;;;;;;4931087;28;19933;-67
2022/02/01 12:11:38;;;;;;;;;;;-0.70;99.90;;;;;;4931363;28;20373;-69
2022/02/01 12:14:05;;;;;;;;;;;-0.80;99.90;;;;;;4933479;28;20966;-65
2022/02/01 12:16:32;;;;;;;;;;;-0.80;99.90;;;;;;4933233;28;19930;-68
2022/02/01 12:18:58;;;;;;;;;;;-0.80;99.90;;;;;;4933003;28;19926;-64
2022/02/01 12:21:25;;;;;;;;;;;-0.70;99.90;;;;;;4931304;28;20016;-66
2022/02/01 12:23:53;;;;;;;;;;;-0.80;99.90;;;;;;4933567;28;20021;-65
2022/02/01 12:26:25;;;;;;;;;;;-0.80;99.90;;;;;;4928059;28;19926;-66
2022/02/01 12:28:53;;;;;;;;;;;-0.70;99.90;;;;;;4932316;28;20460;-64
2022/02/01 12:31:21;;;;;;;;;;;-0.70;99.90;;;;;;4928742;28;20028;-71
2022/02/01 12:33:51;;;;;;;;;;;-0.70;99.90;;;;;;4934399;28;19930;-64
2022/02/01 12:36:25;;;;;;;;;;;-0.70;99.90;;;;;;4929711;28;20052;-68
2022/02/01 12:38:58;;;;;;;;;;;-0.70;99.90;;;;;;4930210;28;20048;-66
2022/02/01 12:41:33;;;;;;;;;;;-0.60;99.90;;;;;;4933862;28;20009;-69
2022/02/01 12:46:46;;;;;;;;;;;-0.70;99.90;;;;;;4931880;28;23572;-70
2022/02/01 12:49:50;;;;;;;;;;;-0.70;99.90;;;;;;4934167;28;20510;-64
2022/02/01 12:52:24;;;;;;;;;;;-0.70;99.90;;;;;;4933803;28;20017;-67
2022/02/01 12:54:57;;;;;;;;;;;-0.70;99.90;;;;;;4934224;28;19978;-64
2022/02/01 12:57:24;;;;;;;;;;;-0.70;99.90;;;;;;4938178;28;19989;-70
2022/02/01 12:59:53;;;;;;;;;;;-0.70;99.90;;;;;;4934757;28;20321;-65
2022/02/01 13:02:22;;;;;;;;;;;-0.80;99.90;;;;;;4934653;28;19931;-66
2022/02/01 13:04:57;;;;;;;;;;;-0.70;99.90;;;;;;4935929;28;20119;-65
2022/02/01 13:07:31;;;;;;;;;;;-0.80;99.90;;;;;;4934964;28;20333;-67
2022/02/01 13:13:02;;;;;;;;;;;-0.80;99.90;;;;;;4928037;28;20334;-69
2022/02/01 13:15:37;;;;;;;;;;;-0.70;99.90;;;;;;4937577;28;20016;-67
2022/02/01 13:18:16;;;;;;;;;;;-0.70;99.90;;;;;;4931154;28;20282;-68
2022/02/01 13:20:59;;;;;;;;;;;-0.70;99.90;;;;;;4931635;28;19965;-68
2022/02/01 13:23:42;;;;;;;;;;;-0.70;99.90;;;;;;4934757;28;19930;-65
2022/02/01 13:26:10;;;;;;;;;;;-0.70;99.90;;;;;;4901249;28;19927;-68
2022/02/01 13:29:02;;;;;;;;;;;-0.70;99.90;;;;;;4902174;28;20352;-65
2022/02/01 13:31:33;;;;;;;;;;;-0.80;99.90;;;;;;4902756;28;20423;-68
2022/02/01 13:34:04;;;;;;;;;;;-0.80;99.90;;;;;;4903615;28;20453;-68
2022/02/01 13:36:54;;;;;;;;;;;-0.80;99.90;;;;;;4915220;28;19937;-64
2022/02/01 13:39:23;;;;;;;;;;;-0.80;99.90;;;;;;4899234;28;20254;-71
2022/02/01 13:42:00;;;;;;;;;;;-0.80;99.90;;;;;;4903505;28;20105;-69
2022/02/01 13:45:08;;;;;;;;;;;-0.80;99.90;;;;;;2917499;28;10001831;-71
2022/02/01 13:47:36;;;;;;;;;;;-0.90;99.90;;;;;;3548280;28;10001997;-67
2022/02/01 13:50:05;;;;;;;;;;;-0.90;99.90;;;;;;4903020;28;19937;-68
2022/02/01 13:52:32;;;;;;;;;;;-0.90;99.90;;;;;;4903243;28;20247;-66
2022/02/01 13:54:59;;;;;;;;;;;-0.90;99.90;;;;;;4907331;28;20013;-64
2022/02/01 13:57:31;;;;;;;;;;;-1.00;99.90;;;;;;4931422;28;19937;-65
2022/02/01 14:00:07;;;;;;;;;;;-1.10;99.90;;;;;;4932415;28;20719;-63
2022/02/01 14:02:39;;;;;;;;;;;-1.00;99.90;;;;;;4932166;28;19930;-65
2022/02/01 14:05:18;;;;;;;;;;;-1.10;99.90;;;;;;4927556;28;20341;-68
2022/02/01 14:10:54;;;;;;;;;;;-1.20;99.90;;;;;;4931104;28;19931;-66
2022/02/01 14:26:49;;;;;;;;;;;-1.20;99.90;;;;;;4933504;28;19936;-68
2022/02/01 14:34:36;;;;;;;;;;;-1.30;99.90;;;;;;4936197;28;20013;-64
2022/02/01 14:37:31;;;;;;;;;;;-1.30;99.90;;;;;;4927690;28;20575;-68
2022/02/01 14:45:13;;;;;;;;;;;-1.40;99.90;;;;;;4948060;28;19944;-62
2022/02/01 14:47:40;;;;;;;;;;;-1.30;99.90;;;;;;4945409;28;19930;-64
2022/02/01 14:50:08;;;;;;;;;;;-1.40;99.90;;;;;;4954749;28;20022;-63
2022/02/01 14:52:35;;;;;;;;;;;-1.40;99.90;;;;;;4944577;28;20326;-65
2022/02/01 14:55:23;;;;;;;;;;;-1.40;99.90;;;;;;4948172;28;19969;-63
2022/02/01 15:12:01;;;;;;;;;;;-1.40;99.90;;;;;;4928335;28;20060;-63
2022/02/01 15:14:28;;;;;;;;;;;-1.40;99.90;;;;;;4930305;28;20045;-65
2022/02/01 15:16:55;;;;;;;;;;;-1.50;99.90;;;;;;4931966;28;20348;-65
2022/02/01 15:19:22;;;;;;;;;;;-1.50;99.90;;;;;;4930870;28;19934;-69
2022/02/01 15:21:49;;;;;;;;;;;-1.50;99.90;;;;;;4934501;28;19930;-65
2022/02/01 15:24:36;;;;;;;;;;;-1.50;99.90;;;;;;4903162;28;19938;-65
2022/02/01 15:27:04;;;;;;;;;;;-1.50;99.90;;;;;;4906538;28;20018;-65
2022/02/01 15:29:31;;;;;;;;;;;-1.50;99.90;;;;;;4901106;28;19930;-67
2022/02/01 15:31:58;;;;;;;;;;;-1.50;99.90;;;;;;4903889;28;20040;-64
2022/02/01 15:34:31;;;;;;;;;;;-1.60;99.90;;;;;;4898249;28;20428;-66
2022/02/01 15:37:02;;;;;;;;;;;-1.60;99.90;;;;;;4899749;28;20567;-71
2022/02/01 15:59:05;;;;;;;;;;;-1.60;99.90;;;;;;4935286;28;19933;-65
2022/02/01 16:01:51;;;;;;;;;;;-1.60;99.90;;;;;;4934953;28;19931;-66
2022/02/01 16:04:35;;;;;;;;;;;-1.60;99.90;;;;;;4934064;28;20085;-64
2022/02/01 16:07:07;;;;;;;;;;;-1.60;99.90;;;;;;4934629;28;19930;-64
2022/02/01 16:12:03;;;;;;;;;;;-1.60;99.90;;;;;;4932464;28;19930;-68
2022/02/01 16:14:29;;;;;;;;;;;-1.60;99.90;;;;;;4933777;28;20001;-67
2022/02/01 16:16:56;;;;;;;;;;;-1.60;99.90;;;;;;4931706;28;19936;-65
2022/02/01 16:19:23;;;;;;;;;;;-1.60;99.90;;;;;;4935317;28;19969;-68
2022/02/01 16:21:50;;;;;;;;;;;-1.60;99.90;;;;;;4958480;28;21016;-68
2022/02/01 16:24:17;;;;;;;;;;;-1.60;99.90;;;;;;4933442;28;21214;-67
2022/02/01 16:26:44;;;;;;;;;;;-1.70;99.90;;;;;;4933547;28;20072;-68
2022/02/01 16:29:11;;;;;;;;;;;-1.70;99.90;;;;;;4933261;28;19942;-66
2022/02/01 16:31:40;;;;;;;;;;;-1.70;99.90;;;;;;4932152;28;20025;-62
2022/02/01 16:34:07;;;;;;;;;;;-1.70;99.90;;;;;;4933301;28;19961;-65
2022/02/01 16:36:42;;;;;;;;;;;-1.70;99.90;;;;;;4937106;28;19942;-68
2022/02/01 16:39:09;;;;;;;;;;;-1.70;99.90;;;;;;4930438;28;19930;-64
2022/02/01 16:41:37;;;;;;;;;;;-1.70;99.90;;;;;;4933466;28;19930;-63
2022/02/01 16:44:04;;;;;;;;;;;-1.70;99.90;;;;;;4930666;28;19936;-65
2022/02/01 16:46:42;;;;;;;;;;;-1.70;99.90;;;;;;4932079;28;19945;-67
2022/02/01 16:49:10;;;;;;;;;;;-1.70;99.90;;;;;;4935701;28;19930;-68
2022/02/01 16:51:38;;;;;;;;;;;-1.70;99.90;;;;;;4936787;28;20037;-65
2022/02/01 16:54:10;;;;;;;;;;;-1.60;99.90;;;;;;4930481;28;20053;-65
2022/02/01 16:59:17;;;;;;;;;;;-1.60;99.90;;;;;;4935512;28;20333;-67
2022/02/01 17:01:44;;;;;;;;;;;-1.60;99.90;;;;;;4935408;28;19931;-64
2022/02/01 17:04:11;;;;;;;;;;;-1.60;99.90;;;;;;4935764;28;19930;-67
2022/02/01 17:06:38;;;;;;;;;;;-1.60;99.90;;;;;;4938023;28;19935;-63
2022/02/01 17:09:09;;;;;;;;;;;-1.60;99.90;;;;;;4936434;28;20017;-69
2022/02/01 17:17:08;;;;;;;;;;;-1.60;99.90;;;;;;4934882;28;20387;-65
2022/02/01 17:22:21;;;;;;;;;;;-1.60;99.90;;;;;;4925272;28;19934;-67